Time;durP1;ratioP1;P1;durP2;ratioP2;P2;SDS_P1;SDS_P2;PMS_P1;PMS_P2;Temp;Humidity;BMP_temperature;BMP_pressure;BME280_temperature;BME280_humidity;BME280_pressure;Samples;Min_cycle;Max_cycle;Signal;HPM_P1;HPM_P2
2022/08/29 00:01:00;;;;;;;3.97;2.93;;;13.40;1.00;;;;;;5019884;28;20221;-69
2022/08/29 00:03:28;;;;;;;6.10;2.90;;;13.20;1.00;;;;;;5019617;28;20200;-70
2022/08/29 00:05:55;;;;;;;7.93;2.87;;;13.30;1.00;;;;;;5017855;28;20237;-70
2022/08/29 00:08:23;;;;;;;4.50;2.67;;;13.40;1.00;;;;;;5004607;28;20208;-69
2022/08/29 00:10:50;;;;;;;7.37;3.03;;;13.30;1.00;;;;;;5007168;28;20262;-74
2022/08/29 00:13:21;;;;;;;5.30;2.67;;;13.30;1.00;;;;;;5019834;28;20672;-73
2022/08/29 00:15:48;;;;;;;8.90;3.17;;;13.30;1.00;;;;;;5019275;28;20242;-73
2022/08/29 00:18:16;;;;;;;7.23;3.27;;;13.20;1.00;;;;;;5006101;28;20613;-74
2022/08/29 00:20:44;;;;;;;7.10;3.37;;;13.00;16.50;;;;;;5018413;28;20236;-74
2022/08/29 00:23:12;;;;;;;3.83;2.80;;;13.10;1.00;;;;;;5020013;28;20197;-74
2022/08/29 00:25:39;;;;;;;9.97;3.10;;;13.20;1.00;;;;;;5001946;28;20424;-73
2022/08/29 00:28:06;;;;;;;6.43;2.83;;;13.20;1.00;;;;;;5019058;28;20235;-72
2022/08/29 00:30:34;;;;;;;6.53;3.30;;;13.20;1.00;;;;;;5019017;28;20207;-73
2022/08/29 00:33:02;;;;;;;5.80;2.93;;;13.20;1.00;;;;;;5011719;28;20196;-73
2022/08/29 00:35:32;;;;;;;6.70;3.17;;;13.20;1.00;;;;;;4998058;28;20208;-74
2022/08/29 00:38:00;;;;;;;7.00;3.00;;;13.20;1.00;;;;;;5002884;28;20256;-73
2022/08/29 00:40:33;;;;;;;7.23;2.77;;;13.20;1.00;;;;;;5018303;28;20262;-74
2022/08/29 00:43:01;;;;;;;4.07;2.73;;;13.00;1.00;;;;;;5017291;28;20203;-75
2022/08/29 00:45:28;;;;;;;7.63;3.03;;;13.00;1.00;;;;;;5008700;28;20540;-74
2022/08/29 00:48:08;;;;;;;7.03;2.97;;;13.00;1.00;;;;;;5017124;28;20231;-74
2022/08/29 00:50:39;;;;;;;8.87;2.90;;;13.00;1.00;;;;;;5020301;28;20218;-74
2022/08/29 00:53:12;;;;;;;6.13;2.90;;;13.00;1.00;;;;;;5015755;28;20659;-71
2022/08/29 00:55:40;;;;;;;6.90;3.43;;;13.10;1.00;;;;;;5020481;28;20192;-72
2022/08/29 00:58:13;;;;;;;8.20;3.10;;;13.00;1.00;;;;;;5017171;28;20737;-72
2022/08/29 01:00:43;;;;;;;5.90;2.67;;;13.00;1.00;;;;;;5017307;28;20291;-72
2022/08/29 01:03:11;;;;;;;3.50;2.40;;;13.00;1.00;;;;;;5017284;28;20228;-71
2022/08/29 01:05:38;;;;;;;7.67;3.23;;;13.10;1.00;;;;;;5017381;28;20696;-71
2022/08/29 01:08:06;;;;;;;5.23;2.40;;;13.10;1.00;;;;;;4998965;28;20235;-71
2022/08/29 01:13:24;;;;;;;4.67;3.10;;;13.10;1.00;;;;;;5018176;28;20219;-70
2022/08/29 01:15:52;;;;;;;5.17;2.60;;;13.00;1.00;;;;;;4999589;28;20709;-73
2022/08/29 01:18:21;;;;;;;5.23;2.90;;;13.00;1.00;;;;;;5002562;28;20200;-71
2022/08/29 01:20:57;;;;;;;4.80;2.83;;;13.00;1.00;;;;;;4984715;28;20778;-72
2022/08/29 01:23:57;;;;;;;5.03;2.73;;;13.10;51.00;;;;;;5015160;28;20196;-72
2022/08/29 01:26:27;;;;;;;6.47;3.27;;;13.30;99.90;;;;;;4985703;28;20318;-72
2022/08/29 01:28:56;;;;;;;6.97;2.63;;;13.40;1.00;;;;;;4999342;28;20717;-73
2022/08/29 01:31:26;;;;;;;4.83;2.70;;;13.30;1.00;;;;;;5018206;28;20743;-73
2022/08/29 01:34:15;;;;;;;6.57;2.83;;;13.30;1.00;;;;;;5014941;28;20580;-73
2022/08/29 01:36:52;;;;;;;6.70;3.07;;;13.30;1.00;;;;;;4998102;28;20263;-72
2022/08/29 01:39:25;;;;;;;5.70;2.70;;;13.40;1.00;;;;;;5017287;28;20200;-74
2022/08/29 01:41:53;;;;;;;9.27;3.00;;;13.30;1.00;;;;;;4998426;28;20197;-71
2022/08/29 01:44:24;;;;;;;6.17;2.70;;;13.30;1.00;;;;;;5003911;28;20197;-71
2022/08/29 01:46:54;;;;;;;5.57;3.40;;;13.30;1.00;;;;;;5004968;28;20664;-70
2022/08/29 01:49:28;;;;;;;4.43;3.13;;;12.50;99.90;;;;;;5003696;28;20253;-71
2022/08/29 01:51:55;;;;;;;6.90;3.40;;;12.00;99.90;;;;;;5004178;28;20224;-72
2022/08/29 01:54:22;;;;;;;5.30;3.47;;;11.80;1.00;;;;;;5016479;28;20235;-71
2022/08/29 01:56:51;;;;;;;7.47;3.13;;;11.70;1.00;;;;;;4999624;28;20203;-71
2022/08/29 01:59:22;;;;;;;6.17;3.70;;;11.50;1.00;;;;;;5012173;28;20197;-71
2022/08/29 02:01:55;;;;;;;8.77;3.40;;;11.40;1.00;;;;;;5015760;28;20668;-71
2022/08/29 02:04:23;;;;;;;6.33;3.33;;;11.40;1.00;;;;;;5027943;28;20664;-72
2022/08/29 02:06:50;;;;;;;6.07;3.60;;;11.60;1.00;;;;;;5036692;28;20193;-71
2022/08/29 02:09:17;;;;;;;4.70;3.30;;;11.80;1.00;;;;;;5035532;28;20200;-70
2022/08/29 02:11:45;;;;;;;7.90;3.33;;;11.90;1.00;;;;;;5034996;28;20218;-71
2022/08/29 02:14:12;;;;;;;6.77;3.13;;;12.00;99.90;;;;;;5021127;28;20200;-69
2022/08/29 02:16:46;;;;;;;7.30;3.13;;;12.10;99.90;;;;;;5036877;28;20196;-68
2022/08/29 02:19:14;;;;;;;8.47;3.47;;;12.10;99.90;;;;;;5035237;28;20199;-67
2022/08/29 02:21:42;;;;;;;8.73;3.63;;;12.20;99.90;;;;;;5035816;28;20691;-67
2022/08/29 02:24:09;;;;;;;6.67;3.93;;;12.20;99.90;;;;;;5038131;28;20199;-69
2022/08/29 02:26:53;;;;;;;6.27;3.00;;;12.20;99.90;;;;;;5038038;28;20208;-69
2022/08/29 02:29:20;;;;;;;6.27;3.63;;;12.20;99.90;;;;;;5038126;28;21312;-69
2022/08/29 02:31:47;;;;;;;10.00;3.50;;;12.20;99.90;;;;;;5035084;28;20575;-70
2022/08/29 02:34:15;;;;;;;6.57;3.20;;;12.10;99.90;;;;;;5034517;28;20809;-69
2022/08/29 02:36:42;;;;;;;7.23;3.67;;;12.20;99.90;;;;;;5037910;28;20200;-70
2022/08/29 02:39:12;;;;;;;9.03;6.10;;;12.50;99.90;;;;;;5038468;28;20591;-73
2022/08/29 02:41:39;;;;;;;32.30;19.87;;;12.80;99.90;;;;;;5035323;28;20707;-69
2022/08/29 02:44:10;;;;;;;28.17;19.07;;;12.90;99.90;;;;;;5048061;28;20211;-68
2022/08/29 02:46:37;;;;;;;22.10;16.07;;;12.90;99.90;;;;;;5033380;28;20214;-70
2022/08/29 02:49:04;;;;;;;22.50;16.47;;;13.20;2.00;;;;;;5048996;28;20195;-70
2022/08/29 02:51:32;;;;;;;16.63;9.93;;;13.20;1.00;;;;;;5033750;28;20288;-70
2022/08/29 02:54:00;;;;;;;13.13;7.53;;;13.50;1.00;;;;;;5033499;28;20841;-70
2022/08/29 02:56:28;;;;;;;8.87;5.60;;;13.70;1.00;;;;;;5038133;28;20254;-70
2022/08/29 02:58:56;;;;;;;17.37;8.20;;;13.70;1.00;;;;;;5055385;28;20199;-70
2022/08/29 03:01:24;;;;;;;10.00;5.00;;;13.70;1.00;;;;;;5035639;28;20592;-70
2022/08/29 03:03:52;;;;;;;18.83;13.10;;;13.00;1.00;;;;;;5035576;28;20252;-70
2022/08/29 03:06:20;;;;;;;18.67;14.13;;;12.90;1.00;;;;;;4998551;28;20203;-70
2022/08/29 03:08:48;;;;;;;9.10;5.23;;;13.00;1.00;;;;;;5002117;28;20577;-71
2022/08/29 03:11:16;;;;;;;8.47;4.40;;;13.00;1.00;;;;;;5004841;28;20501;-72
2022/08/29 03:13:44;;;;;;;6.53;3.37;;;12.90;1.00;;;;;;5009132;28;20223;-71
2022/08/29 03:16:12;;;;;;;10.00;4.80;;;12.70;1.00;;;;;;5009231;28;20615;-70
2022/08/29 03:18:40;;;;;;;9.53;6.70;;;12.70;1.00;;;;;;5007964;28;20208;-69
2022/08/29 03:21:18;;;;;;;13.70;10.57;;;13.00;1.00;;;;;;5020253;28;20224;-69
2022/08/29 03:23:45;;;;;;;16.30;12.73;;;13.10;1.00;;;;;;4991606;28;20209;-69
2022/08/29 03:26:12;;;;;;;14.20;9.77;;;13.10;1.00;;;;;;5014344;28;20295;-70
2022/08/29 03:28:43;;;;;;;13.20;8.17;;;13.10;1.00;;;;;;4990797;28;20196;-69
2022/08/29 03:31:10;;;;;;;9.07;5.97;;;13.20;1.00;;;;;;5018476;28;20831;-70
2022/08/29 03:33:38;;;;;;;7.47;4.83;;;13.30;1.00;;;;;;5020010;28;20550;-69
2022/08/29 03:36:07;;;;;;;5.90;4.13;;;13.40;1.00;;;;;;5004350;28;20204;-70
2022/08/29 03:38:42;;;;;;;8.23;3.73;;;13.40;1.00;;;;;;5008587;28;20615;-70
2022/08/29 03:41:09;;;;;;;6.50;3.27;;;13.40;1.00;;;;;;5007356;28;20221;-70
2022/08/29 03:43:36;;;;;;;6.90;3.10;;;13.50;1.00;;;;;;4999689;28;20219;-69
2022/08/29 03:46:03;;;;;;;4.57;3.20;;;12.60;1.00;;;;;;5006591;28;20204;-71
2022/08/29 03:48:32;;;;;;;6.43;3.60;;;12.20;99.90;;;;;;5008913;28;20283;-73
2022/08/29 03:50:59;;;;;;;7.27;3.43;;;12.30;94.10;;;;;;5016867;28;20205;-71
2022/08/29 03:53:26;;;;;;;6.37;3.90;;;12.10;99.90;;;;;;5019450;28;20660;-72
2022/08/29 03:55:53;;;;;;;8.37;6.23;;;12.10;99.90;;;;;;4999492;28;20287;-70
2022/08/29 03:58:20;;;;;;;22.97;16.43;;;11.90;99.90;;;;;;5017284;28;20236;-71
2022/08/29 04:00:48;;;;;;;10.00;6.00;;;12.10;99.90;;;;;;5005957;28;20690;-71
2022/08/29 04:03:15;;;;;;;11.30;6.73;;;12.20;99.90;;;;;;5007255;28;20246;-70
2022/08/29 04:05:42;;;;;;;21.70;15.70;;;12.10;99.90;;;;;;5018024;28;20240;-70
2022/08/29 04:08:09;;;;;;;17.87;13.07;;;12.30;99.90;;;;;;5014779;28;20204;-70
2022/08/29 04:10:38;;;;;;;22.03;13.03;;;12.30;92.40;;;;;;5000456;28;20537;-71
2022/08/29 04:13:06;;;;;;;11.20;5.03;;;12.50;59.30;;;;;;5003813;28;20548;-71
2022/08/29 04:15:36;;;;;;;7.90;3.87;;;12.50;1.00;;;;;;5000020;28;20748;-72
2022/08/29 04:18:05;;;;;;;8.27;5.27;;;11.80;99.90;;;;;;5019652;28;20200;-69
2022/08/29 04:20:38;;;;;;;7.30;4.07;;;11.80;99.90;;;;;;5017559;28;20449;-70
2022/08/29 04:23:06;;;;;;;6.07;3.47;;;11.90;99.90;;;;;;5020064;28;20591;-71
2022/08/29 04:25:36;;;;;;;7.00;4.23;;;11.70;99.90;;;;;;5007788;28;20200;-72
2022/08/29 04:28:09;;;;;;;8.27;4.17;;;11.60;99.90;;;;;;5007688;28;20184;-72
2022/08/29 04:30:38;;;;;;;9.67;3.90;;;11.60;99.90;;;;;;5021283;28;20660;-72
2022/08/29 04:33:05;;;;;;;7.10;4.50;;;11.20;1.00;;;;;;5009498;28;20211;-73
2022/08/29 04:35:34;;;;;;;6.73;4.83;;;10.90;1.00;;;;;;5001917;28;20211;-72
2022/08/29 04:38:01;;;;;;;8.87;4.37;;;10.80;1.00;;;;;;5018572;28;20196;-73
2022/08/29 04:40:28;;;;;;;6.80;4.10;;;10.90;1.00;;;;;;5008295;28;20216;-72
2022/08/29 04:42:58;;;;;;;8.37;4.17;;;10.80;1.00;;;;;;5020983;28;20184;-72
2022/08/29 04:45:25;;;;;;;9.93;5.17;;;11.00;1.00;;;;;;5021124;28;20223;-73
2022/08/29 04:47:52;;;;;;;8.90;4.03;;;11.00;1.00;;;;;;5006245;28;20259;-73
2022/08/29 04:50:22;;;;;;;10.00;4.73;;;11.00;1.00;;;;;;5017818;28;20207;-74
2022/08/29 04:52:54;;;;;;;5.93;3.73;;;10.90;1.00;;;;;;5020220;28;20193;-73
2022/08/29 04:55:22;;;;;;;8.77;4.57;;;10.80;1.00;;;;;;5018514;28;20205;-73
2022/08/29 04:57:52;;;;;;;7.40;4.00;;;11.00;1.00;;;;;;5001747;28;21248;-73
2022/08/29 05:00:22;;;;;;;8.33;4.07;;;11.10;1.00;;;;;;5020157;28;20271;-73
2022/08/29 05:02:49;;;;;;;6.50;4.03;;;11.20;1.00;;;;;;5015817;28;20213;-73
2022/08/29 05:05:17;;;;;;;9.57;4.57;;;11.20;1.00;;;;;;5012191;28;20238;-73
2022/08/29 05:07:45;;;;;;;11.50;4.57;;;11.30;1.00;;;;;;5039347;28;20206;-73
2022/08/29 05:10:18;;;;;;;7.53;4.53;;;11.30;1.00;;;;;;5039321;28;20231;-73
2022/08/29 05:12:45;;;;;;;7.70;4.50;;;11.20;1.00;;;;;;5038697;28;20196;-73
2022/08/29 05:15:14;;;;;;;8.20;4.37;;;11.30;1.00;;;;;;5038222;28;20698;-73
2022/08/29 05:17:41;;;;;;;8.50;4.20;;;11.50;99.90;;;;;;5042612;28;20762;-72
2022/08/29 05:20:08;;;;;;;8.60;4.57;;;11.80;99.90;;;;;;5039904;28;20200;-72
2022/08/29 05:22:37;;;;;;;6.83;3.77;;;12.00;99.90;;;;;;5054329;28;20195;-73
2022/08/29 05:25:05;;;;;;;8.57;4.13;;;12.20;99.90;;;;;;5037943;28;20251;-72
2022/08/29 05:27:32;;;;;;;7.70;3.90;;;12.30;99.70;;;;;;5036023;28;21127;-72
2022/08/29 05:29:59;;;;;;;7.77;4.17;;;12.30;99.70;;;;;;5054857;28;20201;-74
2022/08/29 05:32:26;;;;;;;7.27;3.60;;;12.30;99.90;;;;;;5039647;28;20593;-72
2022/08/29 05:34:54;;;;;;;6.03;3.67;;;12.60;31.90;;;;;;5035593;28;20196;-74
2022/08/29 05:37:22;;;;;;;7.73;3.80;;;12.60;1.00;;;;;;5041679;28;20278;-73
2022/08/29 05:39:49;;;;;;;11.83;4.40;;;12.60;3.10;;;;;;5053622;28;20792;-72
2022/08/29 05:42:18;;;;;;;9.07;4.87;;;12.90;1.00;;;;;;5050609;28;20243;-73
2022/08/29 05:44:45;;;;;;;7.20;4.00;;;13.20;1.00;;;;;;5043702;28;20712;-73
2022/08/29 05:47:15;;;;;;;5.33;3.40;;;13.40;1.00;;;;;;5037036;28;20689;-73
2022/08/29 05:49:44;;;;;;;7.67;3.77;;;13.50;1.00;;;;;;5037661;28;20183;-73
2022/08/29 05:52:12;;;;;;;8.30;3.87;;;13.60;1.00;;;;;;5038988;28;20788;-73
2022/08/29 05:54:40;;;;;;;7.20;4.67;;;13.60;1.00;;;;;;5041008;28;20345;-73
2022/08/29 05:57:10;;;;;;;9.10;4.57;;;13.50;1.00;;;;;;5036640;28;20200;-73
2022/08/29 05:59:45;;;;;;;11.70;3.60;;;14.50;1.00;;;;;;5036312;28;20203;-73
2022/08/29 06:02:12;;;;;;;6.63;3.93;;;16.00;99.90;;;;;;5035172;28;20706;-73
2022/08/29 06:04:39;;;;;;;6.80;4.10;;;15.90;99.90;;;;;;5035207;28;20231;-71
2022/08/29 06:07:07;;;;;;;10.40;4.00;;;15.80;99.90;;;;;;5037289;28;20844;-74
2022/08/29 06:09:36;;;;;;;8.17;4.40;;;15.80;99.90;;;;;;5039077;28;20196;-73
2022/08/29 06:12:04;;;;;;;9.00;3.90;;;15.30;99.90;;;;;;5037263;28;20196;-73
2022/08/29 06:14:31;;;;;;;6.27;3.60;;;16.20;99.90;;;;;;5035227;28;20979;-73
2022/08/29 06:16:59;;;;;;;7.70;3.67;;;17.30;99.90;;;;;;5037448;28;20203;-72
2022/08/29 06:19:28;;;;;;;11.80;4.43;;;17.70;99.90;;;;;;5035990;28;20230;-73
2022/08/29 06:21:55;;;;;;;8.60;3.55;;;18.50;89.20;;;;;;5037793;28;20866;-72
2022/08/29 06:24:22;;;;;;;8.35;3.67;;;17.40;99.90;;;;;;5034701;28;20300;-72
2022/08/29 06:26:49;;;;;;;6.75;3.60;;;18.00;99.90;;;;;;5038588;28;20215;-73
2022/08/29 06:29:16;;;;;;;7.50;3.83;;;17.80;99.90;;;;;;5037418;28;20204;-71
2022/08/29 06:31:43;;;;;;;5.88;3.75;;;19.30;77.20;;;;;;5049834;28;20199;-74
2022/08/29 06:34:10;;;;;;;12.10;4.00;;;20.40;32.80;;;;;;5042366;28;20600;-71
2022/08/29 06:36:37;;;;;;;8.82;3.78;;;22.00;5.10;;;;;;5038209;28;20539;-73
2022/08/29 06:39:07;;;;;;;5.05;3.20;;;23.00;1.00;;;;;;5043325;28;20204;-73
2022/08/29 06:41:36;;;;;;;6.88;3.42;;;23.80;1.00;;;;;;5035747;28;20212;-71
2022/08/29 06:44:05;;;;;;;25.77;5.72;;;23.70;1.00;;;;;;5034663;28;20203;-73
2022/08/29 06:46:37;;;;;;;17.65;4.63;;;21.20;1.00;;;;;;5036538;28;20736;-72
2022/08/29 06:49:07;;;;;;;10.52;4.05;;;21.40;1.00;;;;;;5036331;28;20194;-72
2022/08/29 06:51:36;;;;;;;6.13;3.83;;;22.40;1.00;;;;;;5037182;28;20226;-73
2022/08/29 06:54:06;;;;;;;1579.78;145.25;;;23.40;1.00;;;;;;5037458;28;20221;-72
2022/08/29 06:56:34;;;;;;;8.13;4.10;;;22.80;1.00;;;;;;5034400;28;20203;-73
2022/08/29 06:59:04;;;;;;;12.07;3.97;;;22.90;1.00;;;;;;5032676;28;20200;-73
2022/08/29 07:01:32;;;;;;;7.00;4.05;;;24.20;1.00;;;;;;5039349;28;20709;-73
2022/08/29 07:04:00;;;;;;;7.65;3.83;;;24.60;1.00;;;;;;5039045;28;22682;-73
2022/08/29 07:06:28;;;;;;;9.85;3.78;;;26.50;1.00;;;;;;5004288;28;20602;-73
2022/08/29 07:08:56;;;;;;;5.47;3.67;;;27.30;1.00;;;;;;5016552;28;20207;-72
2022/08/29 07:11:25;;;;;;;8.38;4.82;;;29.00;1.00;;;;;;5015223;28;20295;-72
2022/08/29 07:13:56;;;;;;;7.45;3.83;;;26.70;1.00;;;;;;4982364;28;20213;-73
2022/08/29 07:16:23;;;;;;;8.35;3.85;;;27.70;1.00;;;;;;4998092;28;20200;-72
2022/08/29 07:18:52;;;;;;;11.57;4.28;;;27.60;1.00;;;;;;5012953;28;20212;-72
2022/08/29 07:21:21;;;;;;;6.40;4.10;;;26.50;1.00;;;;;;5003213;28;20221;-72
2022/08/29 07:23:50;;;;;;;9.82;4.22;;;27.70;1.00;;;;;;4986620;28;20200;-72
2022/08/29 07:26:27;;;;;;;10.30;4.20;;;28.00;1.00;;;;;;5015072;28;20314;-73
2022/08/29 07:28:57;;;;;;;5.00;3.80;;;27.20;1.00;;;;;;4996877;28;20610;-73
2022/08/29 07:31:25;;;;;;;6.80;3.63;;;27.80;1.00;;;;;;4999770;28;20200;-72
2022/08/29 07:33:57;;;;;;;8.65;3.65;;;27.40;1.00;;;;;;4998770;28;20200;-72
2022/08/29 07:36:29;;;;;;;4.85;4.03;;;29.40;1.00;;;;;;4998934;28;20630;-73
2022/08/29 07:38:56;;;;;;;8.05;3.88;;;31.70;1.00;;;;;;4999422;28;20209;-74
2022/08/29 07:41:23;;;;;;;6.18;3.45;;;30.70;1.00;;;;;;5015187;28;20220;-73
2022/08/29 07:43:51;;;;;;;8.55;3.90;;;29.60;1.00;;;;;;5017461;28;20204;-73
2022/08/29 07:46:19;;;;;;;11.38;5.65;;;28.80;1.00;;;;;;5018406;28;20632;-73
2022/08/29 07:48:47;;;;;;;11.52;3.78;;;29.30;1.00;;;;;;4999865;28;20232;-72
2022/08/29 07:51:17;;;;;;;8.55;2.90;;;30.10;1.00;;;;;;5007919;28;20224;-73
2022/08/29 07:53:45;;;;;;;6.45;3.30;;;29.80;1.00;;;;;;5010304;28;20185;-74
2022/08/29 07:56:15;;;;;;;6.95;3.72;;;31.00;1.00;;;;;;5003658;28;20204;-73
2022/08/29 07:58:42;;;;;;;7.05;3.25;;;31.90;1.00;;;;;;5001719;28;20243;-73
2022/08/29 08:01:10;;;;;;;9.20;3.97;;;34.20;1.00;;;;;;5017093;28;20917;-74
2022/08/29 08:03:48;;;;;;;6.43;3.17;;;34.30;1.00;;;;;;5013718;28;20689;-73
2022/08/29 08:06:18;;;;;;;15.00;3.72;;;35.70;1.00;;;;;;4992835;28;20218;-74
2022/08/29 08:08:45;;;;;;;7.70;3.63;;;35.40;1.00;;;;;;5000620;28;20730;-73
2022/08/29 08:11:12;;;;;;;6.63;2.97;;;34.70;1.00;;;;;;5014752;28;20553;-73
2022/08/29 08:13:39;;;;;;;6.43;2.78;;;32.60;1.00;;;;;;5012524;28;20602;-73
2022/08/29 08:16:10;;;;;;;493.80;48.67;;;30.40;1.00;;;;;;5015604;28;20220;-74
2022/08/29 08:18:38;;;;;;;9.68;4.05;;;27.90;1.00;;;;;;5003967;28;20201;-71
2022/08/29 08:21:06;;;;;;;9.68;5.63;;;28.90;1.00;;;;;;5014774;28;20201;-73
2022/08/29 08:23:33;;;;;;;11.25;3.22;;;28.50;1.00;;;;;;5000489;28;20200;-73
2022/08/29 08:26:00;;;;;;;60.30;8.35;;;29.10;1.00;;;;;;5005303;28;20220;-73
2022/08/29 08:28:29;;;;;;;8.68;4.20;;;28.80;1.00;;;;;;5016539;28;20547;-72
2022/08/29 08:30:59;;;;;;;6.38;3.28;;;28.30;1.00;;;;;;5016584;28;20208;-71
2022/08/29 08:33:32;;;;;;;278.42;27.73;;;28.30;1.00;;;;;;5012532;28;20206;-73
2022/08/29 08:36:02;;;;;;;7.63;3.45;;;26.90;1.00;;;;;;5017570;28;20196;-74
2022/08/29 08:38:30;;;;;;;13.70;3.60;;;25.10;1.00;;;;;;5001262;28;20280;-73
2022/08/29 08:41:12;;;;;;;1406.90;142.00;;;26.40;1.00;;;;;;5003097;28;20812;-73
2022/08/29 08:43:50;;;;;;;8.85;3.53;;;26.80;1.00;;;;;;5017286;28;20234;-73
2022/08/29 08:46:29;;;;;;;12.02;3.17;;;28.70;1.00;;;;;;5012164;28;20193;-74
2022/08/29 08:49:00;;;;;;;6.57;3.08;;;31.50;1.00;;;;;;5018547;28;20626;-73
2022/08/29 08:51:33;;;;;;;9.27;3.20;;;33.50;1.00;;;;;;5015361;28;20247;-72
2022/08/29 08:54:07;;;;;;;8.90;3.60;;;35.50;1.00;;;;;;4983988;28;20544;-73
2022/08/29 08:56:40;;;;;;;5.60;3.00;;;35.40;1.00;;;;;;5014859;28;20181;-74
2022/08/29 08:59:28;;;;;;;7.65;3.60;;;36.90;1.00;;;;;;5016608;28;20246;-73
2022/08/29 09:02:10;;;;;;;8.35;3.35;;;38.00;1.00;;;;;;5014650;28;20789;-71
2022/08/29 09:05:00;;;;;;;7.10;3.42;;;38.40;1.00;;;;;;5015677;28;20303;-73
2022/08/29 09:07:42;;;;;;;8.85;3.50;;;37.70;1.00;;;;;;5018935;28;20715;-73
2022/08/29 09:10:22;;;;;;;5.88;3.25;;;35.50;1.00;;;;;;5001367;28;20192;-73
2022/08/29 09:13:18;;;;;;;7.53;3.15;;;36.40;1.00;;;;;;5019364;28;20259;-73
2022/08/29 09:15:49;;;;;;;8.52;3.85;;;34.20;1.00;;;;;;5000198;28;20240;-72
2022/08/29 09:18:15;;;;;;;9.80;3.30;;;36.20;1.00;;;;;;5017994;28;20262;-73
2022/08/29 09:20:49;;;;;;;5.85;3.28;;;33.10;1.00;;;;;;5017389;28;20184;-72
2022/08/29 09:23:32;;;;;;;9.20;3.30;;;34.70;1.00;;;;;;5016556;28;20237;-73
2022/08/29 09:25:59;;;;;;;5.22;2.85;;;35.10;1.00;;;;;;5001263;28;20228;-74
2022/08/29 09:28:29;;;;;;;6.25;3.10;;;38.10;1.00;;;;;;5019431;28;20667;-73
2022/08/29 09:31:17;;;;;;;8.23;3.40;;;39.00;1.00;;;;;;5018458;28;20288;-73
2022/08/29 09:33:57;;;;;;;5.25;2.67;;;36.50;1.00;;;;;;5017981;28;20745;-73
2022/08/29 09:36:47;;;;;;;5.28;3.17;;;36.80;1.00;;;;;;4998519;28;20189;-72
2022/08/29 09:39:17;;;;;;;5.47;3.08;;;34.20;1.00;;;;;;4997467;28;20192;-72
2022/08/29 09:41:48;;;;;;;7.55;3.35;;;33.20;1.00;;;;;;5014706;28;20212;-74
2022/08/29 09:44:23;;;;;;;5.45;3.28;;;35.40;1.00;;;;;;5016396;28;20248;-73
2022/08/29 09:47:06;;;;;;;5.55;3.08;;;33.70;1.00;;;;;;5016526;28;20330;-74
2022/08/29 09:49:33;;;;;;;5.72;3.22;;;35.90;1.00;;;;;;5016904;28;20251;-74
2022/08/29 09:52:11;;;;;;;7.15;3.45;;;33.80;1.00;;;;;;5000170;28;20212;-73
2022/08/29 09:54:40;;;;;;;6.38;3.45;;;33.00;1.00;;;;;;5015339;28;20668;-73
2022/08/29 09:57:07;;;;;;;5.95;3.65;;;32.90;1.00;;;;;;5017054;28;20215;-73
2022/08/29 09:59:42;;;;;;;6.93;3.13;;;31.20;1.00;;;;;;5016534;28;20189;-74
2022/08/29 10:02:23;;;;;;;7.32;3.58;;;32.40;1.00;;;;;;5016889;28;20208;-75
2022/08/29 10:04:52;;;;;;;6.35;3.25;;;34.80;1.00;;;;;;5028766;28;20636;-72
2022/08/29 10:07:42;;;;;;;6.82;3.47;;;35.70;1.00;;;;;;5040667;28;20328;-73
2022/08/29 10:10:22;;;;;;;7.07;3.20;;;38.60;1.00;;;;;;5035161;28;20663;-75
2022/08/29 10:13:14;;;;;;;6.15;3.20;;;41.00;1.00;;;;;;5030847;28;20541;-74
2022/08/29 10:15:52;;;;;;;8.13;3.85;;;42.20;1.00;;;;;;5032652;28;20207;-73
2022/08/29 10:18:27;;;;;;;8.05;3.30;;;41.40;1.00;;;;;;5024235;28;20571;-75
2022/08/29 10:21:03;;;;;;;6.30;3.22;;;36.90;1.00;;;;;;5032290;28;20191;-74
2022/08/29 10:23:43;;;;;;;5.57;3.28;;;34.40;1.00;;;;;;5036151;28;20206;-73
2022/08/29 10:26:34;;;;;;;7.25;3.35;;;32.80;1.00;;;;;;5023161;28;20215;-72
2022/08/29 10:29:31;;;;;;;9.80;3.45;;;28.80;1.00;;;;;;5053168;28;20195;-73
2022/08/29 10:32:06;;;;;;;6.97;3.13;;;27.80;1.00;;;;;;5034635;28;20253;-72
2022/08/29 10:34:51;;;;;;;9.93;3.33;;;28.40;1.00;;;;;;5049776;28;20190;-73
2022/08/29 10:37:39;;;;;;;5.45;2.80;;;30.00;1.00;;;;;;5037198;28;20216;-74
2022/08/29 10:40:15;;;;;;;5.05;2.70;;;30.70;1.00;;;;;;5035847;28;20207;-72
2022/08/29 10:42:45;;;;;;;7.10;3.17;;;32.00;1.00;;;;;;5040392;28;20247;-73
2022/08/29 10:45:36;;;;;;;7.70;3.15;;;30.80;1.00;;;;;;5033542;28;20214;-72
2022/08/29 10:48:36;;;;;;;6.88;2.80;;;28.90;1.00;;;;;;5031514;28;20609;-73
2022/08/29 10:51:42;;;;;;;6.38;2.97;;;28.80;1.00;;;;;;5033754;28;20261;-71
2022/08/29 10:54:18;;;;;;;8.27;3.28;;;28.10;1.00;;;;;;5050258;28;20226;-73
2022/08/29 10:56:48;;;;;;;6.03;3.10;;;26.20;1.00;;;;;;5036510;28;20195;-73
2022/08/29 11:00:00;;;;;;;5.07;3.15;;;27.50;1.00;;;;;;5036216;28;20257;-71
2022/08/29 11:02:45;;;;;;;6.85;2.85;;;30.60;1.00;;;;;;5017676;28;20218;-71
2022/08/29 11:05:19;;;;;;;4.57;2.60;;;32.40;1.00;;;;;;5031253;28;20232;-72
2022/08/29 11:08:11;;;;;;;6.60;3.22;;;33.10;1.00;;;;;;5034102;28;20204;-73
2022/08/29 11:10:48;;;;;;;8.60;2.92;;;32.50;1.00;;;;;;5048987;28;20203;-72
2022/08/29 11:13:22;;;;;;;5.60;2.55;;;32.20;1.00;;;;;;5034488;28;20716;-73
2022/08/29 11:16:04;;;;;;;7.32;3.55;;;31.80;1.00;;;;;;5040184;28;20207;-71
2022/08/29 11:18:39;;;;;;;5.82;2.90;;;31.60;1.00;;;;;;5018992;28;20200;-73
2022/08/29 11:21:16;;;;;;;5.47;3.13;;;31.50;1.00;;;;;;5044914;28;20237;-74
2022/08/29 11:23:46;;;;;;;8.27;3.53;;;31.00;1.00;;;;;;5037305;28;20215;-71
2022/08/29 11:26:30;;;;;;;5.25;3.00;;;29.50;1.00;;;;;;5038144;28;20293;-71
2022/08/29 11:29:25;;;;;;;5.93;3.03;;;28.60;1.00;;;;;;5039064;28;20184;-73
2022/08/29 11:32:11;;;;;;;5.43;2.60;;;28.10;1.00;;;;;;5045343;28;20219;-71
2022/08/29 11:34:51;;;;;;;5.22;2.70;;;30.00;1.00;;;;;;5052624;28;20232;-73
2022/08/29 11:37:29;;;;;;;6.60;3.30;;;31.00;1.00;;;;;;5034609;28;20204;-72
2022/08/29 11:40:08;;;;;;;8.40;3.30;;;28.60;1.00;;;;;;5040319;28;20438;-71
2022/08/29 11:42:39;;;;;;;9.55;2.83;;;27.60;1.00;;;;;;5053470;28;20695;-71
2022/08/29 11:45:28;;;;;;;8.00;2.90;;;26.70;1.00;;;;;;5042456;28;20564;-70
2022/08/29 11:48:09;;;;;;;8.13;3.13;;;26.40;1.00;;;;;;5022970;28;20299;-71
2022/08/29 11:50:38;;;;;;;8.45;3.13;;;26.50;1.00;;;;;;5039212;28;20199;-72
2022/08/29 11:53:21;;;;;;;7.80;3.10;;;26.90;1.00;;;;;;5039617;28;20253;-71
2022/08/29 11:56:13;;;;;;;4.50;2.40;;;27.80;1.00;;;;;;5029548;28;20200;-71
2022/08/29 11:58:49;;;;;;;8.40;2.70;;;28.20;1.00;;;;;;5037580;28;20207;-73
2022/08/29 12:01:35;;;;;;;10.95;3.25;;;28.50;1.00;;;;;;5038111;28;20270;-71
2022/08/29 12:04:07;;;;;;;8.27;3.17;;;29.40;1.00;;;;;;5035823;28;20240;-73
2022/08/29 12:06:55;;;;;;;6.93;3.17;;;30.00;1.00;;;;;;5001720;28;20212;-72
2022/08/29 12:09:48;;;;;;;5.63;2.70;;;29.80;1.00;;;;;;5019796;28;20188;-72
2022/08/29 12:12:35;;;;;;;9.90;3.35;;;30.40;1.00;;;;;;5017047;28;20200;-73
2022/08/29 12:15:34;;;;;;;5.75;3.10;;;29.50;1.00;;;;;;5019469;28;20613;-73
2022/08/29 12:18:21;;;;;;;6.93;3.40;;;28.20;1.00;;;;;;5018408;28;20568;-73
2022/08/29 12:20:50;;;;;;;5.60;2.90;;;27.50;1.00;;;;;;5002491;28;20200;-73
2022/08/29 12:23:31;;;;;;;5.43;2.65;;;26.70;1.00;;;;;;5017938;28;20817;-71
2022/08/29 12:26:37;;;;;;;6.90;2.65;;;26.80;1.00;;;;;;5009382;28;20235;-72
2022/08/29 12:29:05;;;;;;;8.32;2.97;;;26.40;1.00;;;;;;5000977;28;20208;-72
2022/08/29 12:31:43;;;;;;;4.28;2.40;;;27.00;1.00;;;;;;5008341;28;20240;-71
2022/08/29 12:34:46;;;;;;;5.63;2.80;;;27.90;1.00;;;;;;5008162;28;20197;-73
2022/08/29 12:37:18;;;;;;;7.28;2.63;;;27.60;1.00;;;;;;5019487;28;20200;-73
2022/08/29 12:39:51;;;;;;;5.88;2.20;;;26.80;1.00;;;;;;5017125;28;20292;-72
2022/08/29 12:42:25;;;;;;;5.65;2.60;;;26.40;1.00;;;;;;5021882;28;20220;-73
2022/08/29 12:45:04;;;;;;;7.50;2.72;;;26.80;1.00;;;;;;5019307;28;20232;-73
2022/08/29 12:47:49;;;;;;;7.30;2.70;;;27.30;1.00;;;;;;5018378;28;20606;-72
2022/08/29 12:50:44;;;;;;;6.45;2.70;;;27.00;1.00;;;;;;5002289;28;20215;-72
2022/08/29 12:53:33;;;;;;;4.63;2.50;;;26.80;1.00;;;;;;5009412;28;20216;-72
2022/08/29 12:56:12;;;;;;;4.40;2.22;;;27.50;1.00;;;;;;4992701;28;20239;-71
2022/08/29 12:58:44;;;;;;;4.47;2.30;;;27.10;1.00;;;;;;5019980;28;20242;-72
2022/08/29 13:01:36;;;;;;;6.70;2.75;;;27.10;1.00;;;;;;5000793;28;20205;-73
2022/08/29 13:04:10;;;;;;;4.85;2.40;;;26.30;1.00;;;;;;4995507;28;20271;-73
2022/08/29 13:06:53;;;;;;;6.90;2.50;;;26.00;1.00;;;;;;5039954;28;20192;-73
2022/08/29 13:09:59;;;;;;;8.45;2.90;;;25.50;1.00;;;;;;5038962;28;20188;-72
2022/08/29 13:12:34;;;;;;;6.65;2.83;;;25.30;1.00;;;;;;5016688;28;20209;-71
2022/08/29 13:15:25;;;;;;;4.22;2.50;;;25.50;1.00;;;;;;5036613;28;20679;-73
2022/08/29 13:17:58;;;;;;;4.85;2.65;;;26.20;1.00;;;;;;5029525;28;20200;-72
2022/08/29 13:20:41;;;;;;;6.15;2.85;;;26.80;1.00;;;;;;5039305;28;20200;-72
2022/08/29 13:23:11;;;;;;;5.65;2.75;;;26.40;1.00;;;;;;5055249;28;20314;-71
2022/08/29 13:26:15;;;;;;;4.60;2.53;;;25.40;1.00;;;;;;5055668;28;20200;-73